Time;durP1;ratioP1;P1;durP2;ratioP2;P2;SDS_P1;SDS_P2;PMS_P1;PMS_P2;Temp;Humidity;BMP_temperature;BMP_pressure;BME280_temperature;BME280_humidity;BME280_pressure;Samples;Min_cycle;Max_cycle;Signal;HPM_P1;HPM_P2
2021/10/22 00:01:18;;;;;;;1.65;0.90;;;20.00;71.10;;;;;;4977625;28;95683;-64
2021/10/22 00:03:50;;;;;;;2.10;1.10;;;20.10;71.10;;;;;;4978271;28;96200;-65
2021/10/22 00:06:26;;;;;;;1.58;1.05;;;20.10;71.10;;;;;;4987078;28;95943;-73
2021/10/22 00:09:02;;;;;;;2.03;1.00;;;20.10;71.00;;;;;;4987519;28;96058;-65
2021/10/22 00:11:36;;;;;;;2.67;0.90;;;20.10;71.00;;;;;;4984932;28;95721;-64
2021/10/22 00:14:06;;;;;;;0.73;0.73;;;20.10;71.00;;;;;;4991372;28;95261;-64
2021/10/22 00:16:40;;;;;;;2.70;0.90;;;20.20;71.00;;;;;;4986550;28;96490;-65
2021/10/22 00:19:11;;;;;;;1.80;0.98;;;20.20;70.90;;;;;;4991992;28;96233;-65
2021/10/22 00:21:42;;;;;;;2.03;1.13;;;20.20;70.90;;;;;;4990414;28;97933;-66
2021/10/22 00:24:13;;;;;;;2.40;0.95;;;20.20;70.90;;;;;;4991583;28;95611;-66
2021/10/22 00:26:50;;;;;;;1.20;0.85;;;20.30;70.80;;;;;;4990652;28;95608;-66
2021/10/22 00:29:20;;;;;;;;;;;20.30;70.80;;;;;;4991532;28;96040;-66
2021/10/22 00:31:52;;;;;;;1.70;0.80;;;20.30;70.90;;;;;;4982746;28;95780;-65
2021/10/22 00:34:28;;;;;;;3.05;0.65;;;20.30;70.80;;;;;;4981685;28;99954;-66
2021/10/22 00:37:01;;;;;;;1.88;0.73;;;20.40;70.30;;;;;;4984825;28;95950;-70
2021/10/22 00:39:32;;;;;;;1.27;0.63;;;20.50;70.90;;;;;;4989898;28;95920;-66
2021/10/22 00:42:03;;;;;;;0.85;0.50;;;20.60;70.90;;;;;;4989692;28;95253;-65
2021/10/22 00:44:34;;;;;;;1.67;0.70;;;20.70;70.90;;;;;;4989291;28;95902;-66
2021/10/22 00:47:04;;;;;;;0.98;0.98;;;20.80;69.40;;;;;;4981974;28;95974;-67
2021/10/22 00:49:37;;;;;;;0.60;0.50;;;20.80;70.70;;;;;;5001954;28;97215;-67
2021/10/22 00:52:14;;;;;;;0.90;0.80;;;21.00;70.80;;;;;;4984005;28;96086;-66
2021/10/22 00:54:46;;;;;;;0.65;0.60;;;21.10;70.70;;;;;;4988200;28;95927;-67
2021/10/22 00:57:17;;;;;;;0.60;0.60;;;21.10;70.60;;;;;;4989719;28;96211;-65
2021/10/22 00:59:48;;;;;;;1.00;0.90;;;21.20;70.50;;;;;;4976137;28;98248;-70
2021/10/22 01:02:21;;;;;;;0.93;0.73;;;21.30;70.60;;;;;;4979045;28;95921;-71
2021/10/22 01:04:54;;;;;;;0.60;0.60;;;21.40;69.80;;;;;;4989213;28;95856;-71
2021/10/22 01:07:26;;;;;;;0.60;0.60;;;21.50;70.50;;;;;;4987246;28;95876;-68
2021/10/22 01:09:56;;;;;;;0.75;0.55;;;21.70;70.40;;;;;;4986902;28;96566;-70
2021/10/22 01:12:29;;;;;;;1.20;0.85;;;21.80;70.30;;;;;;4989307;28;95797;-70
2021/10/22 01:15:01;;;;;;;0.65;0.60;;;22.00;70.20;;;;;;4989996;28;95887;-71
2021/10/22 01:17:46;;;;;;;0.52;0.52;;;22.10;69.90;;;;;;4977645;28;95955;-71
2021/10/22 01:20:20;;;;;;;2.88;0.70;;;22.30;69.50;;;;;;4991742;28;96527;-73
2021/10/22 01:22:53;;;;;;;1.08;0.80;;;22.50;69.40;;;;;;4987829;28;96378;-71
2021/10/22 01:25:28;;;;;;;0.88;0.88;;;22.60;69.30;;;;;;4988980;28;96011;-70
2021/10/22 01:27:59;;;;;;;0.70;0.70;;;22.70;69.70;;;;;;4988570;28;96569;-71
2021/10/22 01:30:31;;;;;;;0.68;0.68;;;22.90;68.90;;;;;;4982570;28;96042;-71
2021/10/22 01:33:07;;;;;;;0.50;0.50;;;23.10;68.70;;;;;;4992889;28;98023;-67
2021/10/22 01:35:38;;;;;;;0.65;0.43;;;23.20;68.40;;;;;;4985270;28;95612;-70
2021/10/22 01:38:09;;;;;;;;;;;23.40;68.30;;;;;;4987145;28;96527;-71
2021/10/22 01:40:40;;;;;;;0.65;0.55;;;23.50;68.10;;;;;;4989894;28;96172;-71
2021/10/22 01:43:10;;;;;;;0.65;0.65;;;23.70;67.10;;;;;;4989135;28;96066;-71
2021/10/22 01:45:41;;;;;;;0.83;0.83;;;23.80;67.00;;;;;;4980835;28;95819;-66
2021/10/22 01:48:12;;;;;;;0.50;0.50;;;24.00;67.40;;;;;;4988072;28;95952;-65
2021/10/22 01:50:44;;;;;;;0.50;0.50;;;24.10;67.30;;;;;;4971880;28;97181;-71
2021/10/22 01:53:17;;;;;;;0.40;0.40;;;24.20;66.90;;;;;;4988554;28;96252;-71
2021/10/22 01:55:47;;;;;;;0.40;0.40;;;24.40;66.90;;;;;;4988780;28;95985;-71
2021/10/22 01:58:18;;;;;;;0.50;0.50;;;24.50;66.80;;;;;;4986027;28;95692;-70
2021/10/22 02:00:48;;;;;;;0.47;0.47;;;24.60;66.60;;;;;;4983056;28;95855;-68
2021/10/22 02:03:18;;;;;;;0.50;0.50;;;24.70;66.40;;;;;;5003499;28;97780;-71
2021/10/22 02:05:51;;;;;;;0.50;0.50;;;24.80;66.30;;;;;;4990509;28;95279;-64
2021/10/22 02:08:22;;;;;;;0.40;0.40;;;24.90;66.20;;;;;;4994509;28;96516;-71
2021/10/22 02:10:52;;;;;;;0.40;0.40;;;25.00;66.10;;;;;;4988091;28;97405;-72
2021/10/22 02:13:23;;;;;;;0.38;0.30;;;25.10;65.70;;;;;;4987667;28;96655;-66
2021/10/22 02:15:54;;;;;;;0.50;0.50;;;25.20;65.60;;;;;;4982920;28;97072;-69
2021/10/22 02:18:26;;;;;;;0.50;0.50;;;25.30;65.60;;;;;;4990410;28;95838;-69
2021/10/22 02:21:00;;;;;;;0.40;0.40;;;25.40;65.20;;;;;;5010821;28;95864;-72
2021/10/22 02:23:32;;;;;;;0.32;0.32;;;25.40;65.20;;;;;;4990754;28;95179;-73
2021/10/22 02:26:03;;;;;;;0.63;0.50;;;25.40;65.00;;;;;;4993020;28;95863;-69
2021/10/22 02:28:37;;;;;;;0.40;0.40;;;25.40;65.10;;;;;;4991432;28;95205;-68
2021/10/22 02:31:09;;;;;;;0.40;0.40;;;25.40;64.90;;;;;;4979251;28;99808;-72
2021/10/22 02:33:42;;;;;;;2.83;0.60;;;25.40;64.90;;;;;;4989891;28;96476;-70
2021/10/22 02:36:13;;;;;;;3.20;0.68;;;25.40;65.10;;;;;;4997600;28;95566;-71
2021/10/22 02:38:44;;;;;;;0.93;0.40;;;25.40;65.00;;;;;;4990540;28;97128;-69
2021/10/22 02:41:15;;;;;;;1.67;0.80;;;25.40;62.40;;;;;;5004825;28;98277;-70
2021/10/22 02:43:48;;;;;;;1.08;0.85;;;25.20;61.10;;;;;;4991001;28;96488;-70
2021/10/22 02:46:18;;;;;;;1.27;0.50;;;25.10;61.10;;;;;;4984970;28;96673;-72
2021/10/22 02:48:48;;;;;;;1.90;0.60;;;24.90;61.30;;;;;;4987811;28;95746;-70
2021/10/22 02:51:19;;;;;;;1.40;0.70;;;24.80;61.50;;;;;;4990443;28;97271;-72
2021/10/22 02:53:49;;;;;;;1.50;0.50;;;24.70;61.50;;;;;;4989760;28;98170;-71
2021/10/22 02:56:20;;;;;;;3.35;0.70;;;24.60;61.90;;;;;;4991120;28;95739;-71
2021/10/22 02:58:52;;;;;;;3.50;0.60;;;24.60;62.10;;;;;;4992641;28;95398;-67
2021/10/22 03:01:23;;;;;;;1.15;0.70;;;24.50;62.30;;;;;;4983142;28;98248;-67
2021/10/22 03:03:54;;;;;;;0.82;0.82;;;24.50;62.40;;;;;;4990015;28;95893;-72
2021/10/22 03:06:27;;;;;;;1.33;0.82;;;24.40;62.40;;;;;;5003725;28;95836;-72
2021/10/22 03:08:59;;;;;;;3.67;1.05;;;24.40;62.60;;;;;;4991245;28;95698;-70
2021/10/22 03:11:30;;;;;;;0.70;0.70;;;24.40;62.70;;;;;;4990177;28;98970;-65
2021/10/22 03:14:00;;;;;;;1.00;0.70;;;24.30;62.60;;;;;;4988837;28;96538;-66
2021/10/22 03:16:31;;;;;;;0.50;0.50;;;24.30;62.70;;;;;;4983109;27;95631;-71
2021/10/22 03:19:03;;;;;;;0.80;0.57;;;24.20;62.90;;;;;;4992628;28;95611;-70
2021/10/22 03:21:33;;;;;;;0.60;0.50;;;24.20;62.90;;;;;;4990731;28;95840;-67
2021/10/22 03:24:04;;;;;;;;;;;24.20;62.90;;;;;;4987829;28;96028;-65
2021/10/22 03:26:35;;;;;;;0.77;0.77;;;24.20;63.00;;;;;;4990427;28;96477;-66
2021/10/22 03:29:06;;;;;;;0.93;0.60;;;24.20;63.10;;;;;;4990519;28;96623;-67
2021/10/22 03:31:37;;;;;;;;;;;24.20;62.90;;;;;;4986998;28;97872;-71
2021/10/22 03:34:10;;;;;;;0.60;0.60;;;24.30;62.90;;;;;;5006890;28;99486;-71
2021/10/22 03:36:41;;;;;;;1.10;0.98;;;24.30;62.90;;;;;;4982982;28;95281;-71
2021/10/22 03:39:12;;;;;;;1.70;0.70;;;24.30;63.10;;;;;;4985509;28;96047;-65
2021/10/22 03:41:44;;;;;;;1.30;0.60;;;24.30;63.00;;;;;;4990337;28;96856;-71
2021/10/22 03:44:15;;;;;;;0.85;0.80;;;24.30;62.80;;;;;;4988954;28;95468;-64
2021/10/22 03:46:46;;;;;;;1.33;0.68;;;24.40;62.70;;;;;;4985133;28;96088;-71
2021/10/22 03:49:16;;;;;;;0.95;0.50;;;24.40;62.60;;;;;;5006483;28;95982;-67
2021/10/22 03:51:48;;;;;;;1.65;0.50;;;24.40;62.70;;;;;;4990774;28;96081;-70
2021/10/22 03:54:17;;;;;;;;;;;24.40;62.80;;;;;;4986696;28;95965;-71
2021/10/22 03:56:47;;;;;;;1.63;0.88;;;24.40;62.80;;;;;;4989939;28;95637;-72
2021/10/22 03:59:17;;;;;;;1.30;0.60;;;24.40;62.50;;;;;;4989622;28;96668;-73
2021/10/22 04:01:49;;;;;;;1.40;0.60;;;24.50;62.50;;;;;;4985230;28;97107;-72
2021/10/22 04:04:27;;;;;;;1.02;0.80;;;24.50;62.60;;;;;;4985633;28;97108;-74
2021/10/22 04:07:01;;;;;;;3.53;0.73;;;24.50;62.50;;;;;;4989632;28;96020;-73
2021/10/22 04:09:33;;;;;;;1.27;0.77;;;24.50;62.40;;;;;;4990290;28;95401;-66
2021/10/22 04:12:04;;;;;;;2.13;0.60;;;24.60;62.60;;;;;;4988003;28;96042;-71
2021/10/22 04:14:35;;;;;;;1.92;0.70;;;24.60;62.10;;;;;;4977593;28;95812;-70
2021/10/22 04:17:05;;;;;;;;;;;24.60;61.80;;;;;;4982878;28;97202;-69
2021/10/22 04:19:37;;;;;;;0.85;0.60;;;24.60;61.80;;;;;;4989524;28;95724;-68
2021/10/22 04:22:08;;;;;;;1.13;0.68;;;24.60;61.90;;;;;;4984660;28;96453;-70
2021/10/22 04:24:40;;;;;;;3.40;0.70;;;24.60;61.90;;;;;;4975145;28;100722;-71
2021/10/22 04:27:11;;;;;;;1.05;0.65;;;24.70;62.00;;;;;;4986220;28;95753;-70
2021/10/22 04:29:45;;;;;;;0.73;0.60;;;24.70;62.00;;;;;;5001978;28;95320;-70
2021/10/22 04:32:17;;;;;;;0.63;0.63;;;24.70;61.90;;;;;;4978098;28;96435;-69
2021/10/22 04:34:48;;;;;;;3.53;0.70;;;24.80;62.00;;;;;;4982765;28;98709;-71
2021/10/22 04:37:45;;;;;;;1.30;0.80;;;24.80;62.20;;;;;;4984340;28;95952;-70
2021/10/22 04:40:31;;;;;;;3.40;1.00;;;24.80;61.20;;;;;;4988466;28;95983;-70
2021/10/22 04:43:08;;;;;;;1.42;0.70;;;24.80;61.90;;;;;;4988040;28;96638;-70
2021/10/22 04:45:40;;;;;;;0.88;0.70;;;24.90;60.20;;;;;;4974002;28;96263;-69
2021/10/22 04:48:13;;;;;;;1.95;0.77;;;24.90;61.40;;;;;;4988162;28;96029;-70
2021/10/22 04:50:52;;;;;;;1.40;0.70;;;25.00;61.60;;;;;;4987805;28;97003;-69
2021/10/22 04:53:25;;;;;;;3.10;0.50;;;25.00;61.60;;;;;;4985855;28;96658;-69
2021/10/22 04:55:55;;;;;;;0.50;0.50;;;25.10;61.60;;;;;;4985993;28;95839;-71
2021/10/22 04:58:25;;;;;;;1.58;0.50;;;25.00;60.20;;;;;;4987610;28;96203;-68
2021/10/22 05:01:00;;;;;;;1.60;0.80;;;25.00;61.10;;;;;;4981092;28;96630;-70
2021/10/22 05:03:31;;;;;;;1.15;0.88;;;25.00;61.20;;;;;;4985508;28;97215;-70
2021/10/22 05:06:02;;;;;;;3.17;0.73;;;24.90;61.20;;;;;;4989010;28;96873;-70
2021/10/22 05:08:33;;;;;;;3.17;1.20;;;25.00;61.00;;;;;;4989193;28;95817;-69
2021/10/22 05:11:05;;;;;;;1.58;1.33;;;25.00;61.10;;;;;;4986852;28;96438;-70
2021/10/22 05:13:36;;;;;;;5.45;1.58;;;25.00;61.00;;;;;;5003011;28;95788;-68
2021/10/22 05:16:07;;;;;;;3.13;1.10;;;25.00;61.30;;;;;;4982337;28;96445;-67
2021/10/22 05:18:38;;;;;;;1.00;1.00;;;25.10;60.50;;;;;;4986389;28;95704;-70
2021/10/22 05:21:11;;;;;;;1.25;1.20;;;25.20;60.80;;;;;;4989069;28;95889;-70
2021/10/22 05:23:42;;;;;;;1.27;1.17;;;25.20;60.70;;;;;;4988729;28;96743;-69
2021/10/22 05:26:17;;;;;;;2.65;1.15;;;25.20;60.70;;;;;;5001398;28;97974;-70
2021/10/22 05:28:48;;;;;;;3.15;1.30;;;25.20;60.80;;;;;;4989312;28;95830;-71
2021/10/22 05:31:20;;;;;;;1.65;1.05;;;25.20;60.70;;;;;;4982115;28;97494;-70
2021/10/22 05:33:51;;;;;;;3.28;1.10;;;25.20;60.90;;;;;;4987385;28;99923;-70
2021/10/22 05:36:23;;;;;;;2.40;1.30;;;25.20;60.90;;;;;;4978841;28;96147;-71
2021/10/22 05:38:54;;;;;;;1.92;1.45;;;25.20;61.00;;;;;;4988211;28;96207;-68
2021/10/22 05:41:24;;;;;;;1.90;1.40;;;25.20;61.20;;;;;;4987788;28;97052;-68
2021/10/22 05:43:55;;;;;;;1.40;1.30;;;25.20;61.20;;;;;;5002008;28;96099;-70
2021/10/22 05:46:27;;;;;;;1.25;1.15;;;25.20;61.20;;;;;;4996341;28;96728;-71
2021/10/22 05:48:58;;;;;;;1.10;1.00;;;25.20;61.20;;;;;;4987923;28;95962;-68
2021/10/22 05:51:29;;;;;;;4.03;1.65;;;25.20;61.20;;;;;;4986966;28;96837;-67
2021/10/22 05:54:00;;;;;;;2.00;1.30;;;25.30;61.30;;;;;;4983030;28;99261;-65
2021/10/22 05:56:30;;;;;;;2.00;1.57;;;25.30;61.30;;;;;;4987854;28;96435;-71
2021/10/22 05:59:00;;;;;;;1.60;1.13;;;25.30;61.20;;;;;;4987289;28;98139;-70
2021/10/22 06:01:30;;;;;;;1.90;1.20;;;25.30;61.30;;;;;;4980329;28;98642;-68
2021/10/22 06:04:01;;;;;;;2.85;1.30;;;25.30;61.40;;;;;;4987006;28;96201;-67
2021/10/22 06:06:33;;;;;;;1.30;1.20;;;25.30;61.40;;;;;;4988607;28;97687;-67
2021/10/22 06:09:04;;;;;;;1.15;1.10;;;25.30;61.50;;;;;;4986917;28;98643;-70
2021/10/22 06:11:36;;;;;;;1.60;1.33;;;25.30;61.50;;;;;;4990289;28;95732;-69
2021/10/22 06:14:07;;;;;;;2.60;1.33;;;25.30;61.40;;;;;;5003015;28;96142;-70
2021/10/22 06:16:38;;;;;;;3.45;0.90;;;25.30;61.30;;;;;;4982231;28;98280;-67
2021/10/22 06:19:15;;;;;;;2.28;1.10;;;25.40;61.90;;;;;;4986734;28;95916;-69
2021/10/22 06:24:16;;;;;;;;;;;25.40;61.90;;;;;;4986924;28;96128;-69
2021/10/22 06:26:49;;;;;;;2.33;1.38;;;25.50;62.20;;;;;;5001632;28;96083;-69
2021/10/22 06:29:20;;;;;;;3.08;1.58;;;25.40;62.30;;;;;;4990344;28;97225;-69
2021/10/22 06:31:52;;;;;;;5.57;1.20;;;25.40;62.40;;;;;;4983715;28;95542;-67
2021/10/22 06:34:26;;;;;;;2.65;1.48;;;25.40;62.30;;;;;;4984314;28;96761;-68
2021/10/22 06:36:56;;;;;;;4.40;1.40;;;25.40;62.40;;;;;;4978928;28;99253;-69
2021/10/22 06:39:26;;;;;;;3.27;1.50;;;25.30;62.40;;;;;;4988566;28;97155;-67
2021/10/22 06:41:56;;;;;;;3.55;1.38;;;25.30;62.80;;;;;;4987007;28;97756;-67
2021/10/22 06:44:27;;;;;;;9.43;1.45;;;25.30;62.80;;;;;;4983300;28;96019;-68
2021/10/22 06:46:57;;;;;;;4.72;1.08;;;25.30;63.10;;;;;;4996574;28;96805;-68
2021/10/22 06:49:28;;;;;;;7.90;1.80;;;25.20;63.60;;;;;;4992280;28;95915;-69
2021/10/22 06:51:59;;;;;;;2.58;1.58;;;25.20;63.60;;;;;;5003366;28;96718;-67
2021/10/22 06:54:30;;;;;;;10.07;1.83;;;25.20;63.00;;;;;;4987170;28;95269;-69
2021/10/22 06:57:00;;;;;;;4.53;1.90;;;25.20;62.70;;;;;;4990102;28;95842;-68
2021/10/22 06:59:30;;;;;;;2.38;1.55;;;25.10;62.30;;;;;;4986391;28;95846;-68
2021/10/22 07:02:00;;;;;;;3.17;1.45;;;25.10;60.90;;;;;;4980064;28;97340;-68
2021/10/22 07:04:32;;;;;;;4.97;4.18;;;25.00;61.00;;;;;;4986765;28;96071;-68
2021/10/22 07:07:16;;;;;;;6.80;4.00;;;24.90;61.20;;;;;;4986581;28;95811;-67
2021/10/22 07:09:49;;;;;;;4.97;3.10;;;24.90;60.00;;;;;;4987572;28;96580;-67
2021/10/22 07:12:24;;;;;;;5.22;2.70;;;24.80;59.50;;;;;;4987683;28;95401;-66
2021/10/22 07:14:57;;;;;;;11.52;3.45;;;24.80;59.20;;;;;;4985263;28;99802;-73
2021/10/22 07:17:28;;;;;;;12.10;3.22;;;24.70;58.90;;;;;;4978190;28;96005;-67
2021/10/22 07:19:59;;;;;;;5.88;2.72;;;24.70;59.40;;;;;;4988259;28;97817;-68
2021/10/22 07:22:32;;;;;;;6.45;3.60;;;24.60;58.80;;;;;;4986673;28;96261;-67
2021/10/22 07:25:04;;;;;;;20.88;3.90;;;24.60;58.90;;;;;;4988818;28;96079;-69
2021/10/22 07:27:36;;;;;;;19.67;4.60;;;24.60;58.90;;;;;;4987932;28;95897;-69
2021/10/22 07:30:07;;;;;;;13.50;4.93;;;24.50;59.40;;;;;;5005264;28;97258;-69
2021/10/22 07:32:38;;;;;;;12.25;3.83;;;24.50;59.90;;;;;;4976781;28;95348;-68
2021/10/22 07:35:11;;;;;;;9.32;4.05;;;24.50;60.70;;;;;;4982418;28;96333;-68
2021/10/22 07:37:42;;;;;;;11.98;5.05;;;24.50;61.50;;;;;;4983413;28;95747;-67
2021/10/22 07:40:14;;;;;;;12.75;4.13;;;24.50;62.40;;;;;;4986066;28;96265;-69
2021/10/22 07:42:44;;;;;;;29.60;12.13;;;24.50;63.20;;;;;;4986730;28;95361;-70
2021/10/22 07:45:14;;;;;;;24.88;14.55;;;24.40;63.40;;;;;;4993279;28;99767;-73
2021/10/22 07:47:43;;;;;;;24.70;13.98;;;24.40;63.20;;;;;;4985009;28;97109;-69
2021/10/22 07:50:15;;;;;;;22.08;12.02;;;24.50;62.40;;;;;;4986312;28;95441;-70
2021/10/22 07:52:46;;;;;;;16.77;9.75;;;24.40;61.40;;;;;;4988406;28;95555;-70
2021/10/22 07:55:16;;;;;;;19.83;9.63;;;24.40;60.50;;;;;;4990286;28;98293;-72
2021/10/22 07:57:46;;;;;;;18.70;10.60;;;24.30;59.70;;;;;;4985824;28;96664;-70
2021/10/22 08:00:17;;;;;;;15.88;9.63;;;24.20;58.70;;;;;;4980459;28;96564;-70
2021/10/22 08:02:49;;;;;;;17.02;9.43;;;24.10;58.00;;;;;;5001899;28;95866;-69
2021/10/22 08:05:21;;;;;;;14.20;8.35;;;24.00;57.40;;;;;;4987300;28;96877;-69
2021/10/22 08:07:52;;;;;;;18.27;10.35;;;24.00;57.00;;;;;;5003225;28;97031;-69
2021/10/22 08:10:23;;;;;;;14.93;8.50;;;24.00;57.70;;;;;;4990808;28;95523;-69
2021/10/22 08:12:55;;;;;;;16.58;9.63;;;23.90;58.60;;;;;;4990848;28;95352;-70
2021/10/22 08:15:40;;;;;;;16.05;10.90;;;23.90;59.40;;;;;;4983533;27;96653;-69
2021/10/22 08:18:12;;;;;;;14.30;9.18;;;24.00;60.20;;;;;;4989748;28;95943;-70
2021/10/22 08:21:01;;;;;;;15.75;9.88;;;23.90;60.80;;;;;;5005518;28;96355;-69
2021/10/22 08:23:33;;;;;;;15.25;9.60;;;23.90;61.00;;;;;;5000403;28;95387;-69
2021/10/22 08:26:04;;;;;;;15.65;8.80;;;23.90;61.80;;;;;;4983812;28;97090;-69
2021/10/22 08:28:35;;;;;;;12.88;8.80;;;23.90;62.40;;;;;;4985096;28;96254;-69
2021/10/22 08:31:07;;;;;;;15.82;8.77;;;23.90;63.00;;;;;;4979404;28;95831;-69
2021/10/22 08:33:42;;;;;;;14.50;9.65;;;23.80;63.80;;;;;;4987162;28;95206;-69
2021/10/22 08:36:12;;;;;;;14.63;9.05;;;23.80;64.20;;;;;;4982902;28;95895;-69
2021/10/22 08:38:43;;;;;;;12.07;8.75;;;23.70;64.80;;;;;;4984550;28;95595;-69
2021/10/22 08:41:17;;;;;;;20.40;10.55;;;23.70;64.80;;;;;;4983297;28;95951;-69
2021/10/22 08:43:52;;;;;;;14.18;8.80;;;23.60;64.60;;;;;;4988905;28;96279;-68
2021/10/22 08:46:24;;;;;;;13.48;8.82;;;23.60;64.20;;;;;;4979612;28;96039;-68
2021/10/22 08:48:57;;;;;;;13.75;9.10;;;23.50;64.20;;;;;;4989073;28;96004;-70
2021/10/22 08:51:28;;;;;;;15.20;8.93;;;23.50;64.80;;;;;;4989167;28;95921;-69
2021/10/22 08:54:00;;;;;;;12.07;8.18;;;23.50;65.40;;;;;;4987780;28;97517;-70
2021/10/22 08:56:31;;;;;;;13.13;9.15;;;23.40;65.70;;;;;;4983769;28;96359;-70
2021/10/22 08:59:01;;;;;;;11.52;8.98;;;23.40;66.10;;;;;;4982200;28;96125;-69
2021/10/22 09:01:32;;;;;;;12.20;8.38;;;23.40;66.30;;;;;;4978930;28;95706;-70
2021/10/22 09:04:03;;;;;;;12.90;8.95;;;23.40;66.40;;;;;;4981145;28;95227;-69
2021/10/22 09:06:49;;;;;;;17.10;9.40;;;23.40;66.80;;;;;;4978698;28;98142;-68
2021/10/22 09:09:20;;;;;;;12.68;8.65;;;23.40;66.90;;;;;;4988528;28;95665;-69
2021/10/22 09:11:51;;;;;;;14.50;9.43;;;23.30;67.00;;;;;;4981943;28;97678;-68
2021/10/22 09:14:21;;;;;;;15.30;10.32;;;23.30;67.20;;;;;;4983607;28;96371;-67
2021/10/22 09:16:53;;;;;;;14.77;8.80;;;23.30;67.40;;;;;;4975985;28;96110;-67
2021/10/22 09:19:35;;;;;;;14.27;9.27;;;23.30;66.90;;;;;;4994595;28;96551;-67
2021/10/22 09:22:32;;;;;;;12.35;8.48;;;23.40;66.70;;;;;;4983595;28;95292;-67
2021/10/22 09:25:08;;;;;;;13.18;8.77;;;23.40;66.50;;;;;;4984169;28;96105;-68
2021/10/22 09:27:56;;;;;;;11.43;9.20;;;23.40;66.40;;;;;;4995824;28;95947;-69
2021/10/22 09:30:30;;;;;;;11.05;8.02;;;23.40;66.20;;;;;;4986828;28;97901;-68
2021/10/22 09:33:11;;;;;;;11.88;8.63;;;23.40;66.10;;;;;;4980446;28;95637;-68
2021/10/22 09:35:50;;;;;;;13.43;8.77;;;23.50;66.10;;;;;;4980158;28;95586;-68
2021/10/22 09:38:31;;;;;;;12.43;8.40;;;23.40;65.50;;;;;;4986915;28;97901;-68
2021/10/22 09:41:07;;;;;;;10.65;7.70;;;23.50;66.00;;;;;;4989315;28;95928;-68
2021/10/22 09:43:37;;;;;;;9.45;7.03;;;23.40;66.60;;;;;;4987151;28;95953;-68
2021/10/22 09:46:17;;;;;;;13.43;8.02;;;23.40;65.90;;;;;;4979861;27;96022;-70
2021/10/22 09:48:56;;;;;;;12.55;7.90;;;23.40;65.90;;;;;;5002916;28;98446;-68
2021/10/22 09:51:38;;;;;;;12.80;8.25;;;23.40;65.80;;;;;;5002043;28;96034;-69
2021/10/22 09:54:09;;;;;;;;;;;23.40;65.90;;;;;;4984846;28;95155;-69
2021/10/22 09:56:43;;;;;;;11.88;7.90;;;23.40;65.80;;;;;;4983443;28;95682;-68
2021/10/22 09:59:27;;;;;;;12.27;8.93;;;23.40;65.80;;;;;;4998326;28;98495;-69
2021/10/22 10:02:00;;;;;;;9.88;6.40;;;23.40;65.80;;;;;;4971892;28;96130;-69
2021/10/22 10:04:34;;;;;;;9.82;7.28;;;23.40;66.40;;;;;;4982569;28;95715;-69
2021/10/22 10:07:12;;;;;;;10.30;7.15;;;23.40;65.80;;;;;;4985357;28;95831;-68
2021/10/22 10:09:49;;;;;;;10.98;7.78;;;23.40;65.80;;;;;;4999060;28;97770;-69
2021/10/22 10:12:21;;;;;;;11.00;7.45;;;23.40;65.80;;;;;;4987510;28;95719;-69
2021/10/22 10:14:52;;;;;;;12.95;7.07;;;23.40;65.70;;;;;;4982789;28;95351;-69
2021/10/22 10:17:24;;;;;;;11.70;8.05;;;23.40;65.80;;;;;;4982334;28;96432;-69
2021/10/22 10:19:55;;;;;;;11.25;6.95;;;23.40;65.80;;;;;;4981540;28;96120;-69
2021/10/22 10:22:32;;;;;;;11.95;7.55;;;23.40;65.80;;;;;;4981224;28;96011;-69
2021/10/22 10:25:07;;;;;;;11.15;7.05;;;23.40;65.80;;;;;;4984216;28;95733;-69
2021/10/22 10:27:52;;;;;;;11.25;7.32;;;23.30;65.70;;;;;;4986731;28;95747;-69
2021/10/22 10:30:29;;;;;;;11.38;7.63;;;23.30;65.80;;;;;;4977614;28;96696;-70
2021/10/22 10:33:02;;;;;;;9.13;6.60;;;23.30;65.80;;;;;;4986627;28;95846;-69
2021/10/22 10:35:44;;;;;;;10.70;6.72;;;23.30;65.80;;;;;;4978161;28;96104;-69
2021/10/22 10:38:15;;;;;;;10.45;7.18;;;23.30;65.90;;;;;;4982779;28;95409;-69
2021/10/22 10:40:45;;;;;;;12.52;6.93;;;23.30;65.30;;;;;;4984187;28;95691;-69
2021/10/22 10:43:27;;;;;;;10.40;6.70;;;23.30;65.80;;;;;;4984916;28;99110;-70
2021/10/22 10:45:57;;;;;;;9.65;6.50;;;23.20;65.80;;;;;;4979708;28;98058;-69
2021/10/22 10:48:39;;;;;;;10.32;6.07;;;23.20;65.90;;;;;;4982658;28;95824;-68
2021/10/22 10:51:11;;;;;;;9.00;6.75;;;23.20;65.90;;;;;;4978647;28;96513;-70
2021/10/22 10:53:43;;;;;;;10.35;6.45;;;23.20;65.90;;;;;;4981837;28;95929;-69
2021/10/22 10:56:47;;;;;;;10.88;6.80;;;23.20;65.90;;;;;;4985061;28;95458;-68
2021/10/22 10:59:43;;;;;;;9.85;6.22;;;23.20;66.00;;;;;;4978703;28;95958;-69
2021/10/22 11:02:13;;;;;;;11.30;6.90;;;23.20;65.90;;;;;;4985446;28;98256;-70
2021/10/22 11:04:49;;;;;;;10.82;6.05;;;23.20;65.90;;;;;;4989738;28;95681;-71
2021/10/22 11:07:34;;;;;;;9.23;5.93;;;23.20;66.00;;;;;;4989959;28;95680;-68
2021/10/22 11:10:08;;;;;;;10.18;6.75;;;23.20;66.00;;;;;;4982178;28;95619;-68
2021/10/22 11:13:16;;;;;;;9.52;5.93;;;23.10;66.00;;;;;;4982845;28;96984;-69
2021/10/22 11:15:47;;;;;;;9.25;6.35;;;23.10;66.00;;;;;;4974022;28;96267;-68
2021/10/22 11:18:20;;;;;;;9.13;6.55;;;23.10;65.50;;;;;;4982105;28;95189;-69
2021/10/22 11:21:05;;;;;;;9.48;6.13;;;23.10;66.10;;;;;;4985507;28;95694;-69
2021/10/22 11:23:39;;;;;;;8.45;5.88;;;23.10;66.00;;;;;;4986983;28;95901;-69
2021/10/22 11:26:20;;;;;;;9.60;5.88;;;23.10;66.00;;;;;;4964643;28;97605;-69
2021/10/22 11:28:57;;;;;;;8.27;6.38;;;23.10;66.10;;;;;;4983962;28;95579;-69
2021/10/22 11:31:59;;;;;;;8.02;5.32;;;23.10;66.00;;;;;;4980988;28;95825;-69
2021/10/22 11:34:33;;;;;;;6.53;5.70;;;23.10;66.10;;;;;;4989236;28;98473;-69
2021/10/22 11:37:09;;;;;;;7.75;5.55;;;23.00;65.50;;;;;;4988448;28;95586;-69
2021/10/22 11:39:45;;;;;;;9.25;5.95;;;23.00;66.00;;;;;;4959226;28;96507;-69
2021/10/22 11:42:34;;;;;;;8.65;6.20;;;23.00;66.00;;;;;;5001965;28;95390;-69
2021/10/22 11:45:06;;;;;;;7.50;5.50;;;23.00;66.10;;;;;;4983423;28;98368;-69
2021/10/22 11:47:41;;;;;;;6.38;4.90;;;22.90;66.10;;;;;;4977794;28;95760;-70
2021/10/22 11:50:36;;;;;;;8.38;5.38;;;22.90;66.40;;;;;;4987092;28;95560;-69
2021/10/22 11:53:22;;;;;;;6.18;4.88;;;22.90;66.10;;;;;;4982760;28;95216;-69
2021/10/22 11:56:02;;;;;;;6.68;5.18;;;22.90;66.10;;;;;;4981717;28;97115;-68
2021/10/22 11:58:35;;;;;;;7.95;5.20;;;22.90;66.20;;;;;;4982105;28;95919;-69
2021/10/22 12:01:05;;;;;;;8.35;5.00;;;22.80;66.20;;;;;;4984873;28;95828;-68
2021/10/22 12:03:42;;;;;;;7.40;5.32;;;22.80;66.20;;;;;;4978656;28;96102;-68
2021/10/22 12:06:18;;;;;;;6.63;4.95;;;22.80;66.20;;;;;;4983700;28;98454;-68
2021/10/22 12:08:50;;;;;;;6.60;4.95;;;22.80;66.30;;;;;;4986595;28;96458;-69
2021/10/22 12:11:25;;;;;;;7.65;5.25;;;22.80;66.30;;;;;;4985111;28;95842;-70
2021/10/22 12:13:55;;;;;;;7.43;4.55;;;22.80;66.30;;;;;;4980273;28;95422;-68
2021/10/22 12:16:33;;;;;;;6.80;4.75;;;22.70;66.30;;;;;;4970339;28;96150;-69
2021/10/22 12:19:04;;;;;;;8.20;4.43;;;22.70;66.40;;;;;;4979014;28;95938;-68
2021/10/22 12:21:36;;;;;;;5.83;5.00;;;22.70;66.40;;;;;;4981754;28;95855;-69
2021/10/22 12:24:12;;;;;;;5.07;4.20;;;22.70;66.50;;;;;;4983034;28;96065;-68
2021/10/22 12:26:44;;;;;;;6.05;4.45;;;22.60;66.50;;;;;;4988669;28;96733;-69
2021/10/22 12:29:15;;;;;;;5.15;4.10;;;22.70;66.60;;;;;;4989344;28;95498;-68
2021/10/22 12:31:54;;;;;;;6.13;4.30;;;22.60;66.50;;;;;;4977350;28;95238;-69
2021/10/22 12:34:33;;;;;;;5.88;4.97;;;22.60;66.60;;;;;;4971621;28;95908;-69
2021/10/22 12:37:17;;;;;;;4.47;3.67;;;22.60;66.60;;;;;;4978406;28;96354;-68
2021/10/22 12:39:48;;;;;;;6.07;4.40;;;22.60;67.20;;;;;;4981056;28;96253;-69
2021/10/22 12:42:31;;;;;;;5.90;4.28;;;22.50;66.60;;;;;;4985811;28;95822;-68
2021/10/22 12:45:19;;;;;;;5.88;4.35;;;22.50;66.60;;;;;;4996130;28;95585;-68
2021/10/22 12:47:51;;;;;;;7.00;4.45;;;22.50;66.60;;;;;;4977210;28;98520;-68
2021/10/22 12:50:27;;;;;;;4.95;4.05;;;22.50;66.60;;;;;;4977937;28;95823;-70
2021/10/22 12:53:01;;;;;;;5.63;4.40;;;22.50;66.70;;;;;;4984455;28;95388;-69
2021/10/22 12:55:32;;;;;;;5.70;3.97;;;22.50;66.70;;;;;;4976207;28;95551;-68
2021/10/22 12:58:20;;;;;;;6.85;4.57;;;22.50;66.70;;;;;;4983032;28;95689;-69
2021/10/22 13:01:30;;;;;;;4.93;4.13;;;22.50;66.80;;;;;;4976202;28;96356;-68
2021/10/22 13:04:07;;;;;;;4.57;3.42;;;22.40;66.70;;;;;;4976326;28;95833;-69
2021/10/22 13:09:55;;;;;;;5.82;4.18;;;22.40;66.80;;;;;;4980744;28;96016;-69
2021/10/22 13:20:39;;;;;;;3.63;3.33;;;22.30;66.80;;;;;;4982201;28;96721;-68
2021/10/22 13:23:14;;;;;;;5.32;4.20;;;22.30;66.90;;;;;;4978150;28;95757;-69
2021/10/22 13:25:47;;;;;;;4.22;3.60;;;22.30;67.00;;;;;;4984958;28;95735;-68
2021/10/22 13:28:31;;;;;;;5.32;3.65;;;22.30;66.90;;;;;;4980074;28;96133;-69
2021/10/22 13:31:06;;;;;;;5.30;3.78;;;22.30;67.00;;;;;;4964211;28;97915;-70
2021/10/22 13:33:39;;;;;;;5.55;3.80;;;22.20;67.00;;;;;;4981726;28;95829;-69